Historyczne dane pomiarowe

Dodano dane terminowe – wersja testowa.

Dane z okresu 1951-2019

Wersja bazy: 1.34 [2019-03-16, lista zmian], aktualizacja planowana na 2019-04-15

Dane meteo z obszaru Polski uzyskane na podstawie danych udostępnionych przez Instytut Meteorologii i Gospodarki Wodnej – Państwowy Instytut Badawczy.

 

Wybierz Datę:    

       

TemperaturaWilgotnośćWiatrCiśnienieOpadyŚniegCzas trwania zjawisk
 Stacja t tx tn tng RH VA  wxwx mslp ppp RRR   cm mm wxwxwxwxwxwxwx
1994-08-14 13.7 16.6 9.9 8.9 68.5- 5.0 7.3---- 0.0------------
1994-08-13 15.0 20.1 13.7 13.3 90.5- 6.3 6.0---- 5.0------------
1994-08-12 17.1 22.2 14.3 12.9 88.3- 5.7 1.3---- 0.1------------
1994-08-11 18.6 25.6 16.4 15.8 76.8- 7.3 5.3---- 20.4------------
1994-08-10 21.8 28.4 12.9 11.5 62.5- 4.3 3.0---- 0.0------------
1994-08-09 22.0 26.4 16.4 15.3 68.0- 4.0 1.0---- 0.0------------
1994-08-08 20.1 25.5 16.5 16.3 78.8- 6.3 1.0---- 0.3------------
1994-08-07 23.2 27.4 19.2 17.3 64.0- 4.3 2.3---- 18.8------------
1994-08-06 24.5 31.2 16.4 14.3 62.5- 3.3 2.7---- 0.0------------
1994-08-05 25.1 33.6 13.9 12.0 47.3- 0.3 1.7---- 0.0------------
1994-08-04 22.8 30.1 13.4 13.3 50.8- 1.7 1.7---- 0.0------------
1994-08-03 23.2 28.4 17.4 16.9 52.8- 1.0 4.0---- 0.0------------
1994-08-02 25.8 33.5 20.4 18.3 58.8- 4.3 2.7---- 20.2------------
1994-08-01 30.0 37.3 18.4 17.3 45.5- 1.0 0.7---- 0.0------------
1994-07-31 29.2 36.6 19.1 18.0 38.8- 2.3 1.3---- 0.0------------
1994-07-30 28.0 36.9 16.3 14.6 41.3- 2.3 0.7---- 0.0------------
1994-07-29 30.4 35.8 22.3 17.9 33.0- 3.7 0.7---- 0.0------------
1994-07-28 27.4 35.0 16.7 15.0 48.3- 1.3 0.7---- 0.0------------
1994-07-27 26.3 33.0 20.3 18.7 55.8- 4.3 1.0---- 0.0------------
1994-07-26 27.3 33.7 19.2 15.9 43.0- 3.0 1.0---- 0.0------------
1994-07-25 26.4 34.1 14.8 12.2 45.0- 2.7 2.3---- 0.0------------
1994-07-24 25.7 30.9 14.3 12.2 39.8- 1.0 0.7---- 0.0------------
1994-07-23 24.3 31.4 15.4 11.6 37.5- 1.0 2.7---- 0.0------------
1994-07-22 23.2 30.6 10.9 8.8 43.8- 3.0 1.3---- 0.0------------
1994-07-21 21.3 27.4 9.4 7.3 44.8- 0.0 1.0---- 0.0------------
1994-07-20 19.0 25.5 12.1 10.3 49.3- 1.0 2.7---- 0.0------------
1994-07-19 19.9 24.6 15.5 13.3 52.3- 3.7 3.7---- 0.0------------
1994-07-18 19.1 24.4 14.4 14.0 73.0- 4.3 2.3---- 0.0------------
1994-07-17 20.6 26.4 16.8 15.3 82.8- 5.3 1.7---- 2.5------------
1994-07-16 21.4 27.0 15.6 14.3 71.3- 6.0 1.3---- 0.0------------
1994-07-15 23.9 31.9 19.7 16.8 59.0- 3.7 1.3---- 0.0------------
1994-07-14 25.8 32.4 17.4 13.9 38.3- 1.3 2.7---- 0.0------------
1994-07-13 24.6 29.9 14.6 12.9 46.5- 2.0 2.0---- 0.0------------
1994-07-12 22.9 27.4 17.6 15.7 69.8- 1.3 2.7---- 0.0------------
1994-07-11 21.6 27.3 13.5 12.4 55.3- 0.3 1.7---- 0.0------------
1994-07-10 18.3 24.9 13.4 12.4 73.8- 4.0 3.3---- 0.0------------
1994-07-09 15.7 20.6 13.8 12.9 86.0- 6.7 3.0---- 20.5------------
1994-07-08 13.9 16.0 12.4 12.3 85.0- 7.0 4.0---- 1.5------------
1994-07-07 18.8 25.5 13.3 11.3 71.3- 4.7 1.0---- 5.2------------
1994-07-06 20.7 26.0 11.8 10.5 59.8- 2.3 1.7---- 0.0------------
1994-07-05 19.2 26.4 15.9 15.5 65.0- 5.3 1.0---- 0.0------------
1994-07-04 24.0 30.5 17.7 14.9 46.0- 3.0 3.3---- 0.0------------
1994-07-03 22.4 28.9 13.4 12.3 49.8- 0.3 2.3---- 0.0------------
1994-07-02 20.0 25.6 11.4 9.3 57.3- 0.0 2.7---- 0.0------------
1994-07-01 18.2 23.9 9.0 7.9 65.8- 1.3 0.7---- 0.0------------
1994-06-30 21.0 24.8 17.8 16.4 75.8- 5.0 3.7---- 0.4------------
1994-06-29 27.0 34.4 19.6 16.6 65.8- 4.0 2.0---- 14.5------------
1994-06-28 25.3 33.9 19.1 18.3 67.3- 1.0 2.0---- 0.0------------
1994-06-27 24.7 32.5 19.6 14.3 64.3- 2.7 1.7---- 0.0------------
1994-06-26 26.1 34.3 15.1 10.1 47.5- 1.0 1.7---- 0.0------------
1994-06-25 19.0 26.2 11.3 5.7 39.0- 0.0 3.3---- 0.0------------
1994-06-24 14.5 20.6 4.6 1.9 50.5- 0.0 2.7---- 0.0------------
1994-06-23 16.2 21.1 12.6 11.8 48.3- 2.7 3.7---- 0.0------------
1994-06-22 19.7 23.8 14.9 13.3 68.0- 5.3 2.0---- 0.0------------
1994-06-21 17.1 23.0 7.0 5.3 57.8- 3.0 0.3---- 0.0------------
1994-06-20 16.6 22.0 14.4 12.8 62.8- 5.7 2.7---- 0.0------------
1994-06-19 17.8 25.0 11.9 11.8 67.8- 6.3 0.3---- 0.0------------
1994-06-18 12.4 19.0 5.0 2.3 75.0- 5.0 2.0---- 7.5------------
1994-06-17 10.9 14.8 7.5 6.2 62.0- 4.7 3.7---- 0.0------------
1994-06-16 11.1 15.8 8.0 5.3 85.5- 7.7 2.0---- 2.8------------
214.7 ms

 

Źródłem pochodzenia danych jest Instytut Meteorologii i Gospodarki Wodnej – Państwowy Instytut Badawczy. Dane Instytutu Meteorologii i Gospodarki Wodnej – Państwowego Instytutu Badawczego zostały przetworzone.

Dane źródłowe można odnaleźć na stronie https://dane.imgw.pl